sensor_id;sensor_type;location;lat;lon;timestamp;temperature;humidity
51996;DHT22;38010;53.264;6.592;2023-12-22T00:01:54;14.40;99.90
51996;DHT22;38010;53.264;6.592;2023-12-22T00:04:20;14.40;99.90
51996;DHT22;38010;53.264;6.592;2023-12-22T00:06:45;14.40;99.90
51996;DHT22;38010;53.264;6.592;2023-12-22T00:09:13;14.40;99.90
51996;DHT22;38010;53.264;6.592;2023-12-22T00:11:39;14.40;99.90
51996;DHT22;38010;53.264;6.592;2023-12-22T00:14:05;14.40;99.90
51996;DHT22;38010;53.264;6.592;2023-12-22T00:16:30;14.30;99.90
51996;DHT22;38010;53.264;6.592;2023-12-22T00:18:56;14.30;99.90
51996;DHT22;38010;53.264;6.592;2023-12-22T00:21:23;14.30;99.90
51996;DHT22;38010;53.264;6.592;2023-12-22T00:23:48;14.30;99.90
51996;DHT22;38010;53.264;6.592;2023-12-22T00:26:14;14.30;99.90
51996;DHT22;38010;53.264;6.592;2023-12-22T00:28:40;14.30;99.90
51996;DHT22;38010;53.264;6.592;2023-12-22T00:31:07;14.30;99.90
51996;DHT22;38010;53.264;6.592;2023-12-22T00:33:33;14.30;99.90
51996;DHT22;38010;53.264;6.592;2023-12-22T00:35:58;14.30;99.90
51996;DHT22;38010;53.264;6.592;2023-12-22T00:38:24;14.30;99.90
51996;DHT22;38010;53.264;6.592;2023-12-22T00:40:49;14.30;99.90
51996;DHT22;38010;53.264;6.592;2023-12-22T00:43:15;14.20;99.90
51996;DHT22;38010;53.264;6.592;2023-12-22T00:45:41;14.20;99.90
51996;DHT22;38010;53.264;6.592;2023-12-22T00:48:06;14.20;99.90
51996;DHT22;38010;53.264;6.592;2023-12-22T00:50:32;14.20;99.90
51996;DHT22;38010;53.264;6.592;2023-12-22T00:52:58;14.20;99.90
51996;DHT22;38010;53.264;6.592;2023-12-22T00:55:23;14.20;99.90
51996;DHT22;38010;53.264;6.592;2023-12-22T00:57:49;14.20;99.90
51996;DHT22;38010;53.264;6.592;2023-12-22T01:00:15;14.20;99.90
51996;DHT22;38010;53.264;6.592;2023-12-22T01:02:41;14.10;99.90
51996;DHT22;38010;53.264;6.592;2023-12-22T01:05:07;14.20;99.90
51996;DHT22;38010;53.264;6.592;2023-12-22T01:07:32;14.10;99.90
51996;DHT22;38010;53.264;6.592;2023-12-22T01:09:58;14.10;99.90
51996;DHT22;38010;53.264;6.592;2023-12-22T01:12:27;14.10;99.90
51996;DHT22;38010;53.264;6.592;2023-12-22T01:14:55;14.10;99.90
51996;DHT22;38010;53.264;6.592;2023-12-22T01:17:20;14.10;99.90
51996;DHT22;38010;53.264;6.592;2023-12-22T01:19:46;14.10;99.90
51996;DHT22;38010;53.264;6.592;2023-12-22T01:22:12;14.10;99.90
51996;DHT22;38010;53.264;6.592;2023-12-22T01:24:37;14.10;99.90
51996;DHT22;38010;53.264;6.592;2023-12-22T01:27:06;14.10;99.90
51996;DHT22;38010;53.264;6.592;2023-12-22T01:29:32;14.10;99.90
51996;DHT22;38010;53.264;6.592;2023-12-22T01:31:58;14.10;99.90
51996;DHT22;38010;53.264;6.592;2023-12-22T01:34:23;14.10;99.90
51996;DHT22;38010;53.264;6.592;2023-12-22T01:36:49;14.00;99.90
51996;DHT22;38010;53.264;6.592;2023-12-22T01:39:15;14.00;99.90
51996;DHT22;38010;53.264;6.592;2023-12-22T01:41:41;14.00;99.90
51996;DHT22;38010;53.264;6.592;2023-12-22T01:44:07;14.00;99.90
51996;DHT22;38010;53.264;6.592;2023-12-22T01:46:33;14.00;99.90
51996;DHT22;38010;53.264;6.592;2023-12-22T01:49:00;14.00;99.90
51996;DHT22;38010;53.264;6.592;2023-12-22T01:51:33;14.00;99.90
51996;DHT22;38010;53.264;6.592;2023-12-22T01:54:00;14.00;99.90
51996;DHT22;38010;53.264;6.592;2023-12-22T01:56:26;14.00;99.90
51996;DHT22;38010;53.264;6.592;2023-12-22T01:58:59;14.00;99.90
51996;DHT22;38010;53.264;6.592;2023-12-22T02:01:25;14.00;99.90
51996;DHT22;38010;53.264;6.592;2023-12-22T02:03:51;14.00;99.90
51996;DHT22;38010;53.264;6.592;2023-12-22T02:06:18;14.00;99.90
51996;DHT22;38010;53.264;6.592;2023-12-22T02:08:47;14.00;99.90
51996;DHT22;38010;53.264;6.592;2023-12-22T02:11:13;13.90;99.90
51996;DHT22;38010;53.264;6.592;2023-12-22T02:13:39;13.90;99.90
51996;DHT22;38010;53.264;6.592;2023-12-22T02:18:43;13.90;99.90
51996;DHT22;38010;53.264;6.592;2023-12-22T02:21:11;13.90;99.90
51996;DHT22;38010;53.264;6.592;2023-12-22T02:23:37;13.90;99.90
51996;DHT22;38010;53.264;6.592;2023-12-22T02:26:12;13.90;99.90
51996;DHT22;38010;53.264;6.592;2023-12-22T02:28:40;13.90;99.90
51996;DHT22;38010;53.264;6.592;2023-12-22T02:31:17;13.90;99.90
51996;DHT22;38010;53.264;6.592;2023-12-22T02:33:44;13.90;99.90
51996;DHT22;38010;53.264;6.592;2023-12-22T02:36:12;13.90;99.90
51996;DHT22;38010;53.264;6.592;2023-12-22T02:38:40;13.90;99.90
51996;DHT22;38010;53.264;6.592;2023-12-22T02:41:06;13.90;99.90
51996;DHT22;38010;53.264;6.592;2023-12-22T02:43:32;13.90;99.90
51996;DHT22;38010;53.264;6.592;2023-12-22T02:45:58;13.80;99.90
51996;DHT22;38010;53.264;6.592;2023-12-22T02:48:23;13.80;99.90
51996;DHT22;38010;53.264;6.592;2023-12-22T02:50:49;13.90;99.90
51996;DHT22;38010;53.264;6.592;2023-12-22T02:53:15;13.80;99.90
51996;DHT22;38010;53.264;6.592;2023-12-22T02:55:41;13.90;99.90
51996;DHT22;38010;53.264;6.592;2023-12-22T02:58:06;13.90;99.90
51996;DHT22;38010;53.264;6.592;2023-12-22T03:00:32;13.90;99.90
51996;DHT22;38010;53.264;6.592;2023-12-22T03:02:58;13.90;99.90
51996;DHT22;38010;53.264;6.592;2023-12-22T03:05:23;13.90;99.90
51996;DHT22;38010;53.264;6.592;2023-12-22T03:07:49;13.90;99.90
51996;DHT22;38010;53.264;6.592;2023-12-22T03:10:15;13.90;99.90
51996;DHT22;38010;53.264;6.592;2023-12-22T03:12:40;13.90;99.90
51996;DHT22;38010;53.264;6.592;2023-12-22T03:15:06;13.90;99.90
51996;DHT22;38010;53.264;6.592;2023-12-22T03:17:32;13.90;99.90
51996;DHT22;38010;53.264;6.592;2023-12-22T03:19:58;13.90;99.90
51996;DHT22;38010;53.264;6.592;2023-12-22T03:22:23;13.90;99.90
51996;DHT22;38010;53.264;6.592;2023-12-22T03:24:49;14.00;99.90
51996;DHT22;38010;53.264;6.592;2023-12-22T03:27:15;14.00;99.90
51996;DHT22;38010;53.264;6.592;2023-12-22T03:29:42;14.00;99.90
51996;DHT22;38010;53.264;6.592;2023-12-22T03:32:08;14.00;99.90
51996;DHT22;38010;53.264;6.592;2023-12-22T03:34:34;14.10;99.90
51996;DHT22;38010;53.264;6.592;2023-12-22T03:36:59;14.10;99.90
51996;DHT22;38010;53.264;6.592;2023-12-22T03:39:25;14.10;99.90
51996;DHT22;38010;53.264;6.592;2023-12-22T03:41:51;14.10;99.90
51996;DHT22;38010;53.264;6.592;2023-12-22T03:44:16;14.10;99.90
51996;DHT22;38010;53.264;6.592;2023-12-22T03:46:42;14.10;99.90
51996;DHT22;38010;53.264;6.592;2023-12-22T03:49:08;14.10;99.90
51996;DHT22;38010;53.264;6.592;2023-12-22T03:51:33;14.10;99.90
51996;DHT22;38010;53.264;6.592;2023-12-22T03:53:59;14.10;99.90
51996;DHT22;38010;53.264;6.592;2023-12-22T03:56:25;14.10;99.90
51996;DHT22;38010;53.264;6.592;2023-12-22T03:58:51;14.10;99.90
51996;DHT22;38010;53.264;6.592;2023-12-22T04:01:16;14.20;99.90
51996;DHT22;38010;53.264;6.592;2023-12-22T04:03:42;14.20;99.90
51996;DHT22;38010;53.264;6.592;2023-12-22T04:06:08;14.20;99.90
51996;DHT22;38010;53.264;6.592;2023-12-22T04:08:33;14.20;99.90
51996;DHT22;38010;53.264;6.592;2023-12-22T04:10:59;14.20;99.90
51996;DHT22;38010;53.264;6.592;2023-12-22T04:13:25;14.20;99.90
51996;DHT22;38010;53.264;6.592;2023-12-22T04:15:50;14.20;99.90
51996;DHT22;38010;53.264;6.592;2023-12-22T04:18:16;14.20;99.90
51996;DHT22;38010;53.264;6.592;2023-12-22T04:20:42;14.20;99.90
51996;DHT22;38010;53.264;6.592;2023-12-22T04:23:07;14.20;99.90
51996;DHT22;38010;53.264;6.592;2023-12-22T04:25:33;14.20;99.90
51996;DHT22;38010;53.264;6.592;2023-12-22T04:27:59;14.20;99.90
51996;DHT22;38010;53.264;6.592;2023-12-22T04:30:24;14.20;99.90
51996;DHT22;38010;53.264;6.592;2023-12-22T04:32:52;14.20;99.90
51996;DHT22;38010;53.264;6.592;2023-12-22T04:35:17;14.20;99.90
51996;DHT22;38010;53.264;6.592;2023-12-22T04:37:43;14.20;99.90
51996;DHT22;38010;53.264;6.592;2023-12-22T04:40:09;14.20;99.90
51996;DHT22;38010;53.264;6.592;2023-12-22T04:42:35;14.20;99.90
51996;DHT22;38010;53.264;6.592;2023-12-22T04:45:00;14.20;99.90
51996;DHT22;38010;53.264;6.592;2023-12-22T04:47:26;14.20;99.90
51996;DHT22;38010;53.264;6.592;2023-12-22T04:49:52;14.20;99.90
51996;DHT22;38010;53.264;6.592;2023-12-22T04:52:17;14.30;99.90
51996;DHT22;38010;53.264;6.592;2023-12-22T04:54:43;14.30;99.90
51996;DHT22;38010;53.264;6.592;2023-12-22T04:57:09;14.30;99.90
51996;DHT22;38010;53.264;6.592;2023-12-22T04:59:35;14.30;99.90
51996;DHT22;38010;53.264;6.592;2023-12-22T05:02:00;14.30;99.90
51996;DHT22;38010;53.264;6.592;2023-12-22T05:04:26;14.20;99.90
51996;DHT22;38010;53.264;6.592;2023-12-22T05:06:51;14.30;99.90
51996;DHT22;38010;53.264;6.592;2023-12-22T05:09:17;14.30;99.90
51996;DHT22;38010;53.264;6.592;2023-12-22T05:11:43;14.20;99.90
51996;DHT22;38010;53.264;6.592;2023-12-22T05:14:09;14.30;99.90
51996;DHT22;38010;53.264;6.592;2023-12-22T05:16:35;14.20;99.90
51996;DHT22;38010;53.264;6.592;2023-12-22T05:19:01;14.20;99.90
51996;DHT22;38010;53.264;6.592;2023-12-22T05:21:27;14.20;99.90
51996;DHT22;38010;53.264;6.592;2023-12-22T05:23:53;14.20;99.90
51996;DHT22;38010;53.264;6.592;2023-12-22T05:26:22;14.20;99.90
51996;DHT22;38010;53.264;6.592;2023-12-22T05:28:49;14.20;99.90
51996;DHT22;38010;53.264;6.592;2023-12-22T05:31:16;14.20;99.90
51996;DHT22;38010;53.264;6.592;2023-12-22T05:33:41;14.20;99.90
51996;DHT22;38010;53.264;6.592;2023-12-22T05:36:08;14.20;99.90
51996;DHT22;38010;53.264;6.592;2023-12-22T05:38:37;14.20;99.90
51996;DHT22;38010;53.264;6.592;2023-12-22T05:41:04;14.20;99.90
51996;DHT22;38010;53.264;6.592;2023-12-22T05:43:30;14.20;99.90
51996;DHT22;38010;53.264;6.592;2023-12-22T05:45:56;14.20;99.90
51996;DHT22;38010;53.264;6.592;2023-12-22T05:48:22;14.30;99.90
51996;DHT22;38010;53.264;6.592;2023-12-22T05:50:48;14.20;99.90
51996;DHT22;38010;53.264;6.592;2023-12-22T05:53:14;14.30;99.90
51996;DHT22;38010;53.264;6.592;2023-12-22T05:55:40;14.30;99.90
51996;DHT22;38010;53.264;6.592;2023-12-22T05:58:06;14.30;99.90
51996;DHT22;38010;53.264;6.592;2023-12-22T06:00:31;14.30;99.90
51996;DHT22;38010;53.264;6.592;2023-12-22T06:02:57;14.30;99.90
51996;DHT22;38010;53.264;6.592;2023-12-22T06:05:23;14.20;99.90
51996;DHT22;38010;53.264;6.592;2023-12-22T06:07:48;14.20;99.90
51996;DHT22;38010;53.264;6.592;2023-12-22T06:10:14;14.30;99.90
51996;DHT22;38010;53.264;6.592;2023-12-22T06:12:40;14.30;99.90
51996;DHT22;38010;53.264;6.592;2023-12-22T06:15:06;14.20;99.90
51996;DHT22;38010;53.264;6.592;2023-12-22T06:17:32;14.20;99.90
51996;DHT22;38010;53.264;6.592;2023-12-22T06:19:57;14.30;99.90
51996;DHT22;38010;53.264;6.592;2023-12-22T06:22:23;14.20;99.90
51996;DHT22;38010;53.264;6.592;2023-12-22T06:24:49;14.20;99.90
51996;DHT22;38010;53.264;6.592;2023-12-22T06:27:14;14.30;99.90
51996;DHT22;38010;53.264;6.592;2023-12-22T06:29:40;14.30;99.90
51996;DHT22;38010;53.264;6.592;2023-12-22T06:32:06;14.30;99.90
51996;DHT22;38010;53.264;6.592;2023-12-22T06:34:33;14.30;99.90
51996;DHT22;38010;53.264;6.592;2023-12-22T06:36:58;14.30;99.90
51996;DHT22;38010;53.264;6.592;2023-12-22T06:39:24;14.40;99.90
51996;DHT22;38010;53.264;6.592;2023-12-22T06:41:50;14.50;99.90
51996;DHT22;38010;53.264;6.592;2023-12-22T06:44:16;14.50;99.90
51996;DHT22;38010;53.264;6.592;2023-12-22T06:46:42;14.60;99.90
51996;DHT22;38010;53.264;6.592;2023-12-22T06:49:08;14.70;99.90
51996;DHT22;38010;53.264;6.592;2023-12-22T06:51:34;14.70;99.90
51996;DHT22;38010;53.264;6.592;2023-12-22T06:54:01;14.70;99.90
51996;DHT22;38010;53.264;6.592;2023-12-22T06:56:29;14.80;99.90
51996;DHT22;38010;53.264;6.592;2023-12-22T06:58:56;14.80;99.90
51996;DHT22;38010;53.264;6.592;2023-12-22T07:01:30;14.80;99.90
51996;DHT22;38010;53.264;6.592;2023-12-22T07:03:59;14.80;99.90
51996;DHT22;38010;53.264;6.592;2023-12-22T07:06:30;14.80;99.90
51996;DHT22;38010;53.264;6.592;2023-12-22T07:11:34;14.90;99.90
51996;DHT22;38010;53.264;6.592;2023-12-22T07:14:00;14.80;99.90
51996;DHT22;38010;53.264;6.592;2023-12-22T07:16:26;14.90;99.90
51996;DHT22;38010;53.264;6.592;2023-12-22T07:18:51;14.80;99.90
51996;DHT22;38010;53.264;6.592;2023-12-22T07:21:17;14.80;99.90
51996;DHT22;38010;53.264;6.592;2023-12-22T07:23:46;14.80;99.90
51996;DHT22;38010;53.264;6.592;2023-12-22T07:26:11;14.80;99.90
51996;DHT22;38010;53.264;6.592;2023-12-22T07:28:37;14.80;99.90
51996;DHT22;38010;53.264;6.592;2023-12-22T07:31:03;14.80;99.90
51996;DHT22;38010;53.264;6.592;2023-12-22T07:33:29;14.70;99.90
51996;DHT22;38010;53.264;6.592;2023-12-22T07:35:55;14.70;99.90
51996;DHT22;38010;53.264;6.592;2023-12-22T07:38:20;14.70;99.90
51996;DHT22;38010;53.264;6.592;2023-12-22T07:40:46;14.70;99.90
51996;DHT22;38010;53.264;6.592;2023-12-22T07:43:12;14.70;99.90
51996;DHT22;38010;53.264;6.592;2023-12-22T07:45:38;14.60;99.90
51996;DHT22;38010;53.264;6.592;2023-12-22T07:48:04;14.60;99.90
51996;DHT22;38010;53.264;6.592;2023-12-22T07:50:30;14.60;99.90
51996;DHT22;38010;53.264;6.592;2023-12-22T07:52:56;14.50;99.90
51996;DHT22;38010;53.264;6.592;2023-12-22T07:55:21;14.50;99.90
51996;DHT22;38010;53.264;6.592;2023-12-22T07:57:47;14.50;99.90
51996;DHT22;38010;53.264;6.592;2023-12-22T08:00:13;14.50;99.90
51996;DHT22;38010;53.264;6.592;2023-12-22T08:02:39;14.40;99.90
51996;DHT22;38010;53.264;6.592;2023-12-22T08:05:05;14.40;99.90
51996;DHT22;38010;53.264;6.592;2023-12-22T08:07:31;14.40;99.90
51996;DHT22;38010;53.264;6.592;2023-12-22T08:09:56;14.40;99.90
51996;DHT22;38010;53.264;6.592;2023-12-22T08:12:22;14.40;99.90
51996;DHT22;38010;53.264;6.592;2023-12-22T08:14:48;14.30;99.90
51996;DHT22;38010;53.264;6.592;2023-12-22T08:17:14;14.40;99.90
51996;DHT22;38010;53.264;6.592;2023-12-22T08:19:40;14.30;99.90
51996;DHT22;38010;53.264;6.592;2023-12-22T08:22:11;14.40;99.90
51996;DHT22;38010;53.264;6.592;2023-12-22T08:24:40;14.40;99.90
51996;DHT22;38010;53.264;6.592;2023-12-22T08:27:05;14.40;99.90
51996;DHT22;38010;53.264;6.592;2023-12-22T08:29:35;14.40;99.90
51996;DHT22;38010;53.264;6.592;2023-12-22T08:32:01;14.40;99.90
51996;DHT22;38010;53.264;6.592;2023-12-22T08:34:27;14.40;99.90
51996;DHT22;38010;53.264;6.592;2023-12-22T08:36:53;14.40;99.90
51996;DHT22;38010;53.264;6.592;2023-12-22T08:39:18;14.40;99.90
51996;DHT22;38010;53.264;6.592;2023-12-22T08:41:45;14.40;99.90
51996;DHT22;38010;53.264;6.592;2023-12-22T08:44:11;14.50;99.90
51996;DHT22;38010;53.264;6.592;2023-12-22T08:46:40;14.50;99.90
51996;DHT22;38010;53.264;6.592;2023-12-22T08:49:09;14.50;99.90
51996;DHT22;38010;53.264;6.592;2023-12-22T08:51:34;14.60;99.90
51996;DHT22;38010;53.264;6.592;2023-12-22T08:54:00;14.60;99.90
51996;DHT22;38010;53.264;6.592;2023-12-22T08:56:26;14.60;99.90
51996;DHT22;38010;53.264;6.592;2023-12-22T08:58:53;14.70;99.90
51996;DHT22;38010;53.264;6.592;2023-12-22T09:01:21;14.70;99.90
51996;DHT22;38010;53.264;6.592;2023-12-22T09:03:47;14.70;99.90
51996;DHT22;38010;53.264;6.592;2023-12-22T09:06:17;14.80;99.90
51996;DHT22;38010;53.264;6.592;2023-12-22T09:08:43;14.80;99.90
51996;DHT22;38010;53.264;6.592;2023-12-22T09:11:16;14.80;99.90
51996;DHT22;38010;53.264;6.592;2023-12-22T09:13:42;14.90;99.90
51996;DHT22;38010;53.264;6.592;2023-12-22T09:16:09;14.90;99.90
51996;DHT22;38010;53.264;6.592;2023-12-22T09:18:35;15.00;99.90
51996;DHT22;38010;53.264;6.592;2023-12-22T09:21:01;15.00;99.90
51996;DHT22;38010;53.264;6.592;2023-12-22T09:23:29;15.10;99.90
51996;DHT22;38010;53.264;6.592;2023-12-22T09:25:55;15.10;99.90
51996;DHT22;38010;53.264;6.592;2023-12-22T09:28:20;15.10;99.90
51996;DHT22;38010;53.264;6.592;2023-12-22T09:30:46;15.20;99.90
51996;DHT22;38010;53.264;6.592;2023-12-22T09:33:12;15.20;99.90
51996;DHT22;38010;53.264;6.592;2023-12-22T09:35:38;15.20;99.90
51996;DHT22;38010;53.264;6.592;2023-12-22T09:38:07;15.20;99.90
51996;DHT22;38010;53.264;6.592;2023-12-22T09:40:35;15.20;99.90
51996;DHT22;38010;53.264;6.592;2023-12-22T09:43:02;15.20;99.90
51996;DHT22;38010;53.264;6.592;2023-12-22T09:45:30;15.20;99.90
51996;DHT22;38010;53.264;6.592;2023-12-22T09:47:56;15.20;99.90
51996;DHT22;38010;53.264;6.592;2023-12-22T09:50:24;15.20;99.90
51996;DHT22;38010;53.264;6.592;2023-12-22T09:52:51;15.20;99.90
51996;DHT22;38010;53.264;6.592;2023-12-22T09:55:17;15.20;99.90
51996;DHT22;38010;53.264;6.592;2023-12-22T09:57:43;15.20;99.90
51996;DHT22;38010;53.264;6.592;2023-12-22T10:00:11;15.10;99.90
51996;DHT22;38010;53.264;6.592;2023-12-22T10:02:39;15.10;99.90
51996;DHT22;38010;53.264;6.592;2023-12-22T10:05:05;15.10;99.90
51996;DHT22;38010;53.264;6.592;2023-12-22T10:07:31;15.10;99.90
51996;DHT22;38010;53.264;6.592;2023-12-22T10:09:59;15.10;99.90
51996;DHT22;38010;53.264;6.592;2023-12-22T10:12:27;15.00;99.90
51996;DHT22;38010;53.264;6.592;2023-12-22T10:14:55;15.00;99.90
51996;DHT22;38010;53.264;6.592;2023-12-22T10:17:22;15.10;99.90
51996;DHT22;38010;53.264;6.592;2023-12-22T10:19:48;15.10;99.90
51996;DHT22;38010;53.264;6.592;2023-12-22T10:22:13;15.10;99.90
51996;DHT22;38010;53.264;6.592;2023-12-22T10:24:43;15.10;99.90
51996;DHT22;38010;53.264;6.592;2023-12-22T10:27:10;15.10;99.90
51996;DHT22;38010;53.264;6.592;2023-12-22T10:29:36;15.10;99.90
51996;DHT22;38010;53.264;6.592;2023-12-22T10:32:03;15.10;99.90
51996;DHT22;38010;53.264;6.592;2023-12-22T10:34:30;15.10;99.90
51996;DHT22;38010;53.264;6.592;2023-12-22T10:36:56;15.10;99.90
51996;DHT22;38010;53.264;6.592;2023-12-22T10:39:22;15.10;99.90
51996;DHT22;38010;53.264;6.592;2023-12-22T10:41:50;15.20;99.90
51996;DHT22;38010;53.264;6.592;2023-12-22T10:44:17;15.20;99.90
51996;DHT22;38010;53.264;6.592;2023-12-22T10:46:43;15.20;99.90
51996;DHT22;38010;53.264;6.592;2023-12-22T10:49:09;15.20;99.90
51996;DHT22;38010;53.264;6.592;2023-12-22T10:51:34;15.20;99.90
51996;DHT22;38010;53.264;6.592;2023-12-22T10:54:00;15.20;99.90
51996;DHT22;38010;53.264;6.592;2023-12-22T10:56:26;15.10;99.90
51996;DHT22;38010;53.264;6.592;2023-12-22T10:58:53;15.10;99.90
51996;DHT22;38010;53.264;6.592;2023-12-22T11:01:21;15.10;99.90
51996;DHT22;38010;53.264;6.592;2023-12-22T11:03:50;15.10;99.90
51996;DHT22;38010;53.264;6.592;2023-12-22T11:06:17;15.00;99.90
51996;DHT22;38010;53.264;6.592;2023-12-22T11:08:43;15.00;99.90
51996;DHT22;38010;53.264;6.592;2023-12-22T11:11:31;15.00;99.90
51996;DHT22;38010;53.264;6.592;2023-12-22T11:13:59;15.00;99.90
51996;DHT22;38010;53.264;6.592;2023-12-22T11:16:28;15.00;99.90
51996;DHT22;38010;53.264;6.592;2023-12-22T11:18:54;14.90;99.90
51996;DHT22;38010;53.264;6.592;2023-12-22T11:21:24;14.90;99.90
51996;DHT22;38010;53.264;6.592;2023-12-22T11:23:51;14.90;99.90
51996;DHT22;38010;53.264;6.592;2023-12-22T11:26:18;14.90;99.90
51996;DHT22;38010;53.264;6.592;2023-12-22T11:28:49;14.90;99.90
51996;DHT22;38010;53.264;6.592;2023-12-22T11:31:16;14.90;99.90
51996;DHT22;38010;53.264;6.592;2023-12-22T11:33:47;14.80;99.90
51996;DHT22;38010;53.264;6.592;2023-12-22T11:36:14;14.80;99.90
51996;DHT22;38010;53.264;6.592;2023-12-22T11:38:41;14.90;99.90
51996;DHT22;38010;53.264;6.592;2023-12-22T11:41:14;14.80;99.90
51996;DHT22;38010;53.264;6.592;2023-12-22T11:43:42;14.90;99.90
51996;DHT22;38010;53.264;6.592;2023-12-22T11:46:09;14.90;99.90
51996;DHT22;38010;53.264;6.592;2023-12-22T11:48:35;14.90;99.90
51996;DHT22;38010;53.264;6.592;2023-12-22T11:51:00;14.90;99.90
51996;DHT22;38010;53.264;6.592;2023-12-22T11:53:30;14.90;99.90
51996;DHT22;38010;53.264;6.592;2023-12-22T11:56:07;14.90;99.90
51996;DHT22;38010;53.264;6.592;2023-12-22T11:58:43;14.90;99.90
51996;DHT22;38010;53.264;6.592;2023-12-22T12:01:17;14.90;99.90
51996;DHT22;38010;53.264;6.592;2023-12-22T12:03:56;14.90;99.90
51996;DHT22;38010;53.264;6.592;2023-12-22T12:06:33;14.90;99.90
51996;DHT22;38010;53.264;6.592;2023-12-22T12:09:06;14.90;99.90
51996;DHT22;38010;53.264;6.592;2023-12-22T12:14:22;14.90;99.90
51996;DHT22;38010;53.264;6.592;2023-12-22T12:17:03;14.90;99.90
51996;DHT22;38010;53.264;6.592;2023-12-22T12:19:30;14.90;99.90
51996;DHT22;38010;53.264;6.592;2023-12-22T12:21:56;14.90;99.90
51996;DHT22;38010;53.264;6.592;2023-12-22T12:24:22;14.90;99.90
51996;DHT22;38010;53.264;6.592;2023-12-22T12:26:48;14.90;99.90
51996;DHT22;38010;53.264;6.592;2023-12-22T12:29:15;14.90;99.90
51996;DHT22;38010;53.264;6.592;2023-12-22T12:31:42;14.90;99.90
51996;DHT22;38010;53.264;6.592;2023-12-22T12:34:10;14.90;99.90
51996;DHT22;38010;53.264;6.592;2023-12-22T12:36:36;14.90;99.90
51996;DHT22;38010;53.264;6.592;2023-12-22T12:39:07;14.90;99.90
51996;DHT22;38010;53.264;6.592;2023-12-22T12:41:38;14.90;99.90
51996;DHT22;38010;53.264;6.592;2023-12-22T12:44:06;14.90;99.90
51996;DHT22;38010;53.264;6.592;2023-12-22T12:46:41;14.90;99.90
51996;DHT22;38010;53.264;6.592;2023-12-22T12:49:09;14.90;99.90
51996;DHT22;38010;53.264;6.592;2023-12-22T12:51:49;14.90;99.90
51996;DHT22;38010;53.264;6.592;2023-12-22T12:54:15;14.90;99.90
51996;DHT22;38010;53.264;6.592;2023-12-22T12:56:44;14.90;99.90
51996;DHT22;38010;53.264;6.592;2023-12-22T12:59:10;14.90;99.90
51996;DHT22;38010;53.264;6.592;2023-12-22T13:01:44;14.90;99.90
51996;DHT22;38010;53.264;6.592;2023-12-22T13:04:10;14.80;99.90
51996;DHT22;38010;53.264;6.592;2023-12-22T13:06:50;14.80;99.90
51996;DHT22;38010;53.264;6.592;2023-12-22T13:09:17;14.80;99.90
51996;DHT22;38010;53.264;6.592;2023-12-22T13:11:45;14.80;99.90
51996;DHT22;38010;53.264;6.592;2023-12-22T13:14:13;14.90;99.90
51996;DHT22;38010;53.264;6.592;2023-12-22T13:16:47;14.90;99.90
51996;DHT22;38010;53.264;6.592;2023-12-22T13:19:13;14.90;99.90
51996;DHT22;38010;53.264;6.592;2023-12-22T13:21:39;14.90;99.90
51996;DHT22;38010;53.264;6.592;2023-12-22T13:26:38;15.00;99.90
51996;DHT22;38010;53.264;6.592;2023-12-22T13:29:05;15.00;99.90
51996;DHT22;38010;53.264;6.592;2023-12-22T13:31:32;15.00;99.90
51996;DHT22;38010;53.264;6.592;2023-12-22T13:33:59;15.10;99.90
51996;DHT22;38010;53.264;6.592;2023-12-22T13:36:25;15.10;99.90
51996;DHT22;38010;53.264;6.592;2023-12-22T13:38:51;15.10;99.90
51996;DHT22;38010;53.264;6.592;2023-12-22T13:41:17;15.10;99.90
51996;DHT22;38010;53.264;6.592;2023-12-22T13:43:43;15.10;99.90
51996;DHT22;38010;53.264;6.592;2023-12-22T13:46:13;15.10;99.90
51996;DHT22;38010;53.264;6.592;2023-12-22T13:48:43;15.10;99.90
51996;DHT22;38010;53.264;6.592;2023-12-22T13:51:09;15.20;99.90
51996;DHT22;38010;53.264;6.592;2023-12-22T13:53:46;15.30;99.90
51996;DHT22;38010;53.264;6.592;2023-12-22T13:56:12;15.30;99.90
51996;DHT22;38010;53.264;6.592;2023-12-22T13:58:47;15.30;99.90
51996;DHT22;38010;53.264;6.592;2023-12-22T14:01:14;15.30;99.90
51996;DHT22;38010;53.264;6.592;2023-12-22T14:03:43;15.30;99.90
51996;DHT22;38010;53.264;6.592;2023-12-22T14:06:11;15.20;99.90
51996;DHT22;38010;53.264;6.592;2023-12-22T14:08:39;15.20;99.90
51996;DHT22;38010;53.264;6.592;2023-12-22T14:11:06;15.20;99.90
51996;DHT22;38010;53.264;6.592;2023-12-22T14:13:32;15.20;99.90
51996;DHT22;38010;53.264;6.592;2023-12-22T14:15:57;15.10;99.90
51996;DHT22;38010;53.264;6.592;2023-12-22T14:18:23;15.10;99.90
51996;DHT22;38010;53.264;6.592;2023-12-22T14:20:49;15.10;99.90
51996;DHT22;38010;53.264;6.592;2023-12-22T14:23:14;15.10;99.90
51996;DHT22;38010;53.264;6.592;2023-12-22T14:25:43;15.00;99.90
51996;DHT22;38010;53.264;6.592;2023-12-22T14:28:09;15.00;99.90
51996;DHT22;38010;53.264;6.592;2023-12-22T14:30:35;15.00;99.90
51996;DHT22;38010;53.264;6.592;2023-12-22T14:33:00;15.00;99.90
51996;DHT22;38010;53.264;6.592;2023-12-22T14:35:26;15.00;99.90
51996;DHT22;38010;53.264;6.592;2023-12-22T14:37:52;14.90;99.90
51996;DHT22;38010;53.264;6.592;2023-12-22T14:40:18;14.90;99.90
51996;DHT22;38010;53.264;6.592;2023-12-22T14:42:43;14.90;99.90
51996;DHT22;38010;53.264;6.592;2023-12-22T14:45:09;14.90;99.90
51996;DHT22;38010;53.264;6.592;2023-12-22T14:47:35;14.80;99.90
51996;DHT22;38010;53.264;6.592;2023-12-22T14:50:01;14.80;99.90
51996;DHT22;38010;53.264;6.592;2023-12-22T14:52:30;14.80;99.90
51996;DHT22;38010;53.264;6.592;2023-12-22T14:54:59;14.80;99.90
51996;DHT22;38010;53.264;6.592;2023-12-22T14:57:25;14.80;99.90
51996;DHT22;38010;53.264;6.592;2023-12-22T14:59:52;14.80;99.90
51996;DHT22;38010;53.264;6.592;2023-12-22T15:02:17;14.80;99.90
51996;DHT22;38010;53.264;6.592;2023-12-22T15:04:44;14.70;99.90
51996;DHT22;38010;53.264;6.592;2023-12-22T15:07:09;14.80;99.90
51996;DHT22;38010;53.264;6.592;2023-12-22T15:09:39;14.80;99.90
51996;DHT22;38010;53.264;6.592;2023-12-22T15:12:05;14.90;99.90
51996;DHT22;38010;53.264;6.592;2023-12-22T15:14:31;15.10;99.90
51996;DHT22;38010;53.264;6.592;2023-12-22T15:16:57;15.40;99.90
51996;DHT22;38010;53.264;6.592;2023-12-22T15:19:23;15.60;99.90
51996;DHT22;38010;53.264;6.592;2023-12-22T15:21:48;15.90;99.90
51996;DHT22;38010;53.264;6.592;2023-12-22T15:24:14;16.10;99.90
51996;DHT22;38010;53.264;6.592;2023-12-22T15:26:40;16.20;99.90
51996;DHT22;38010;53.264;6.592;2023-12-22T15:29:06;16.40;99.90
51996;DHT22;38010;53.264;6.592;2023-12-22T15:31:31;16.60;99.90
51996;DHT22;38010;53.264;6.592;2023-12-22T15:33:57;16.80;99.90
51996;DHT22;38010;53.264;6.592;2023-12-22T15:36:23;17.00;99.90
51996;DHT22;38010;53.264;6.592;2023-12-22T15:38:49;17.00;99.90